Time;durP1;ratioP1;P1;durP2;ratioP2;P2;SDS_P1;SDS_P2;PMS_P1;PMS_P2;Temp;Humidity;BMP_temperature;BMP_pressure;BME280_temperature;BME280_humidity;BME280_pressure;Samples;Min_cycle;Max_cycle;Signal;HPM_P1;HPM_P2
2021/01/29 00:00:25;;;;;;;9.47;5.70;;;7.20;96.60;;;;;;4991258;28;20443;-81
2021/01/29 00:02:52;;;;;;;12.27;7.30;;;7.30;96.70;;;;;;4992156;28;20478;-79
2021/01/29 00:05:20;;;;;;;11.63;6.73;;;7.30;96.70;;;;;;4989918;28;20396;-79
2021/01/29 00:07:46;;;;;;;9.97;6.20;;;7.30;96.70;;;;;;4991306;28;20443;-80
2021/01/29 00:10:12;;;;;;;10.00;6.60;;;7.30;96.70;;;;;;4990805;28;20440;-81
2021/01/29 00:12:38;;;;;;;11.17;6.67;;;7.30;96.70;;;;;;4990996;28;20171;-81
2021/01/29 00:15:07;;;;;;;9.40;5.80;;;7.30;96.70;;;;;;4986834;28;20411;-81
2021/01/29 00:17:33;;;;;;;9.70;5.80;;;7.30;96.70;;;;;;4987521;28;20475;-83
2021/01/29 00:19:58;;;;;;;14.03;6.27;;;7.30;96.80;;;;;;4972520;28;20440;-81
2021/01/29 00:22:24;;;;;;;11.77;6.27;;;7.30;96.70;;;;;;4990228;28;20523;-81
2021/01/29 00:24:50;;;;;;;13.13;6.23;;;7.30;96.80;;;;;;5002722;28;20187;-81
2021/01/29 00:27:15;;;;;;;16.00;6.80;;;7.30;96.70;;;;;;4982836;28;20629;-80
2021/01/29 00:29:41;;;;;;;10.20;5.50;;;7.30;96.80;;;;;;4983901;28;20243;-81
2021/01/29 00:32:07;;;;;;;11.67;6.40;;;7.30;96.80;;;;;;4986631;28;20173;-82
2021/01/29 00:34:32;;;;;;;15.83;5.73;;;7.30;96.80;;;;;;4987970;28;20515;-80
2021/01/29 00:36:58;;;;;;;12.20;5.90;;;7.30;96.70;;;;;;5002942;28;20168;-82
2021/01/29 00:39:24;;;;;;;14.00;7.00;;;7.30;96.80;;;;;;4987057;28;20551;-80
2021/01/29 00:41:49;;;;;;;12.23;6.03;;;7.30;96.90;;;;;;4988513;28;20207;-80
2021/01/29 00:44:15;;;;;;;18.07;6.50;;;7.30;96.90;;;;;;4990734;28;20193;-80
2021/01/29 00:46:40;;;;;;;13.63;5.97;;;7.30;96.90;;;;;;4986250;28;20172;-81
2021/01/29 00:49:06;;;;;;;9.20;5.73;;;7.40;97.00;;;;;;4991847;28;20284;-81
2021/01/29 00:51:32;;;;;;;12.50;5.93;;;7.40;97.00;;;;;;4991789;28;20169;-83
2021/01/29 00:53:57;;;;;;;9.90;6.00;;;7.40;97.00;;;;;;4993211;28;20172;-82
2021/01/29 00:56:32;;;;;;;9.77;5.97;;;7.50;97.00;;;;;;4992576;28;20160;-81
2021/01/29 00:59:03;;;;;;;20.10;6.50;;;7.50;97.00;;;;;;4989643;28;20436;-81
2021/01/29 01:01:47;;;;;;;12.17;6.60;;;7.50;97.00;;;;;;4992139;28;20462;-82
2021/01/29 01:04:14;;;;;;;14.17;6.00;;;7.50;96.90;;;;;;4992607;28;20412;-81
2021/01/29 01:06:42;;;;;;;17.70;6.10;;;7.60;96.90;;;;;;4994141;28;20495;-82
2021/01/29 01:09:26;;;;;;;14.83;6.43;;;7.60;96.90;;;;;;4992355;28;20211;-79
2021/01/29 01:11:52;;;;;;;8.60;5.60;;;7.60;96.90;;;;;;4995808;28;20435;-80
2021/01/29 01:14:20;;;;;;;15.07;5.20;;;7.60;96.90;;;;;;4995379;28;20184;-81
2021/01/29 01:16:46;;;;;;;12.67;5.20;;;7.60;97.20;;;;;;4996434;28;20543;-79
2021/01/29 01:19:44;;;;;;;15.53;6.53;;;7.60;96.80;;;;;;4988680;28;20267;-82
2021/01/29 01:22:10;;;;;;;16.77;5.67;;;7.70;96.90;;;;;;4991937;28;20462;-81
2021/01/29 01:25:08;;;;;;;21.13;5.27;;;7.70;96.90;;;;;;4987307;28;20475;-81
2021/01/29 01:27:35;;;;;;;42.87;14.90;;;7.70;96.90;;;;;;4996177;28;20501;-80
2021/01/29 01:30:14;;;;;;;14.20;5.20;;;7.70;96.80;;;;;;4996939;28;20443;-80
2021/01/29 01:32:44;;;;;;;14.10;6.13;;;7.80;96.90;;;;;;4997796;28;20427;-81
2021/01/29 01:35:28;;;;;;;15.10;5.10;;;7.80;96.90;;;;;;4996506;28;20503;-80
2021/01/29 01:37:55;;;;;;;11.10;5.10;;;7.80;96.90;;;;;;4996283;28;20420;-81
2021/01/29 01:40:41;;;;;;;10.13;5.63;;;7.80;96.90;;;;;;4996635;28;20203;-81
2021/01/29 01:43:12;;;;;;;14.47;5.67;;;7.70;96.80;;;;;;5011616;28;20432;-81
2021/01/29 01:45:52;;;;;;;20.30;5.73;;;7.70;96.80;;;;;;4992314;28;20426;-81
2021/01/29 01:48:32;;;;;;;16.70;5.00;;;7.70;96.80;;;;;;4989125;28;20419;-81
2021/01/29 01:51:50;;;;;;;11.70;5.10;;;7.70;96.80;;;;;;4980899;28;20844;-82
2021/01/29 01:54:19;;;;;;;10.40;5.17;;;7.70;96.80;;;;;;4961566;28;20430;-81
2021/01/29 01:56:49;;;;;;;9.43;5.43;;;7.70;96.80;;;;;;4977704;28;20427;-83
2021/01/29 01:59:45;;;;;;;11.63;4.50;;;7.60;96.80;;;;;;4978735;28;20462;-83
2021/01/29 02:02:45;;;;;;;40.40;7.67;;;7.60;96.80;;;;;;4979466;28;20455;-82
2021/01/29 02:05:32;;;;;;;16.80;4.90;;;7.60;97.20;;;;;;4979250;28;20423;-81
2021/01/29 02:08:09;;;;;;;12.03;4.90;;;7.60;96.90;;;;;;4981068;28;20435;-83
2021/01/29 02:10:54;;;;;;;10.23;4.60;;;7.60;96.90;;;;;;4986762;28;20450;-82
2021/01/29 02:13:28;;;;;;;14.13;5.30;;;7.60;96.90;;;;;;4972613;28;20471;-82
2021/01/29 02:16:21;;;;;;;13.33;5.43;;;7.60;96.90;;;;;;4976705;28;20420;-82
2021/01/29 02:19:12;;;;;;;11.17;6.37;;;7.60;96.90;;;;;;4974366;28;20432;-81
2021/01/29 02:22:10;;;;;;;7.83;4.20;;;7.70;97.30;;;;;;4976632;28;20448;-82
2021/01/29 02:24:57;;;;;;;14.70;5.43;;;7.70;96.90;;;;;;4983085;28;20410;-83
2021/01/29 02:27:39;;;;;;;10.50;4.33;;;7.70;96.90;;;;;;4984333;28;20403;-81
2021/01/29 02:30:27;;;;;;;10.17;4.53;;;7.70;96.90;;;;;;4998811;28;20427;-81
2021/01/29 02:33:18;;;;;;;9.93;3.33;;;7.70;96.90;;;;;;4996818;28;20415;-81
2021/01/29 02:36:08;;;;;;;10.57;3.37;;;7.70;96.90;;;;;;4974838;28;21083;-81
2021/01/29 02:39:01;;;;;;;7.73;4.10;;;7.70;96.80;;;;;;4992189;28;20430;-82
2021/01/29 02:41:49;;;;;;;12.70;4.47;;;7.70;96.80;;;;;;4989379;28;20538;-81
2021/01/29 02:44:35;;;;;;;15.53;4.00;;;7.70;96.80;;;;;;4980184;28;20431;-81
2021/01/29 02:47:24;;;;;;;6.57;3.00;;;7.70;96.80;;;;;;4980145;28;20428;-81
2021/01/29 02:50:52;;;;;;;10.03;3.97;;;7.70;96.80;;;;;;4979469;28;20608;-82
2021/01/29 02:53:51;;;;;;;13.57;4.03;;;7.70;96.80;;;;;;4969114;28;20491;-82
2021/01/29 02:56:34;;;;;;;5.63;2.93;;;7.70;96.80;;;;;;4959878;28;20463;-81
2021/01/29 02:59:42;;;;;;;6.70;4.60;;;7.70;96.80;;;;;;4965299;28;20492;-82
2021/01/29 03:02:37;;;;;;;5.23;3.70;;;7.70;96.90;;;;;;4967513;28;21132;-81
2021/01/29 03:05:18;;;;;;;6.37;3.63;;;7.70;96.80;;;;;;4983258;28;20431;-83
2021/01/29 03:08:03;;;;;;;4.53;2.90;;;7.70;96.90;;;;;;4985734;28;20437;-81
2021/01/29 03:11:13;;;;;;;9.20;2.93;;;7.80;96.90;;;;;;4979899;28;20528;-81
2021/01/29 03:14:23;;;;;;;13.67;4.10;;;7.80;96.90;;;;;;4977951;28;20419;-81
2021/01/29 03:17:19;;;;;;;7.10;2.73;;;7.80;97.00;;;;;;4980822;28;20403;-80
2021/01/29 03:20:35;;;;;;;8.27;3.50;;;7.80;96.90;;;;;;4997264;28;20479;-79
2021/01/29 03:23:35;;;;;;;5.33;3.53;;;7.80;97.00;;;;;;4998197;28;20447;-79
2021/01/29 03:26:35;;;;;;;8.30;2.80;;;7.80;97.00;;;;;;4985322;28;20814;-81
2021/01/29 03:29:40;;;;;;;11.07;3.20;;;7.80;97.00;;;;;;4989991;28;20436;-80
2021/01/29 03:32:25;;;;;;;10.13;3.27;;;7.80;97.10;;;;;;4978653;28;21008;-82
2021/01/29 03:35:21;;;;;;;8.47;3.37;;;7.80;97.10;;;;;;4959426;29;20460;-82
2021/01/29 03:38:24;;;;;;;10.73;3.17;;;7.90;97.20;;;;;;4977746;28;20415;-81
2021/01/29 03:41:32;;;;;;;6.67;2.70;;;7.90;97.50;;;;;;4978999;28;20458;-81
2021/01/29 03:44:45;;;;;;;5.13;2.50;;;7.80;97.20;;;;;;5024669;23;20472;-73
2021/01/29 03:47:29;;;;;;;12.07;3.77;;;7.90;97.20;;;;;;5011944;28;20984;-74
2021/01/29 03:50:27;;;;;;;8.93;3.37;;;7.90;97.20;;;;;;5011775;28;20508;-73
2021/01/29 03:53:37;;;;;;;6.70;3.30;;;7.90;97.20;;;;;;4994778;28;20465;-75
2021/01/29 03:56:38;;;;;;;14.30;4.00;;;7.80;97.20;;;;;;4992308;28;20394;-74
2021/01/29 03:59:43;;;;;;;7.60;2.80;;;7.90;97.20;;;;;;4992039;28;20414;-74
2021/01/29 04:02:46;;;;;;;6.97;3.00;;;7.80;97.20;;;;;;4991990;28;20465;-73
2021/01/29 04:05:56;;;;;;;6.90;3.33;;;7.80;97.20;;;;;;4991773;28;21160;-73
2021/01/29 04:09:11;;;;;;;6.70;2.80;;;7.90;97.30;;;;;;4969899;28;21008;-73
2021/01/29 04:12:01;;;;;;;10.03;3.10;;;7.80;97.20;;;;;;4984368;28;20439;-73
2021/01/29 04:15:03;;;;;;;12.93;3.40;;;7.80;97.30;;;;;;4990386;28;20510;-72
2021/01/29 04:17:40;;;;;;;5.77;2.80;;;7.90;97.30;;;;;;4990548;28;20486;-72
2021/01/29 04:20:29;;;;;;;10.03;3.07;;;7.90;97.40;;;;;;4991832;28;20405;-73
2021/01/29 04:22:56;;;;;;;8.17;2.73;;;7.90;97.40;;;;;;4986866;28;20972;-72
2021/01/29 04:25:36;;;;;;;7.93;3.40;;;7.90;97.40;;;;;;4985851;28;20426;-72
2021/01/29 04:28:08;;;;;;;7.87;3.83;;;7.90;97.40;;;;;;4991555;28;20531;-72
2021/01/29 04:30:38;;;;;;;8.80;2.80;;;7.90;97.50;;;;;;4991499;28;20501;-73
2021/01/29 04:33:16;;;;;;;4.40;2.90;;;7.90;97.50;;;;;;4991708;28;20478;-73
2021/01/29 04:35:42;;;;;;;8.20;3.50;;;7.90;97.50;;;;;;4991543;28;20773;-72
2021/01/29 04:38:26;;;;;;;19.83;3.70;;;7.90;97.60;;;;;;4992375;28;20733;-73
2021/01/29 04:41:13;;;;;;;9.80;2.63;;;8.00;97.60;;;;;;4991343;28;20538;-73
2021/01/29 04:44:10;;;;;;;6.80;3.00;;;8.00;97.60;;;;;;4995901;28;20423;-73
2021/01/29 04:47:08;;;;;;;8.70;3.60;;;8.00;97.60;;;;;;4995395;28;20943;-73
2021/01/29 04:49:43;;;;;;;8.50;3.17;;;8.00;97.70;;;;;;4994053;28;20493;-73
2021/01/29 04:52:18;;;;;;;7.97;3.17;;;8.10;97.70;;;;;;4994193;28;20492;-71
2021/01/29 04:55:28;;;;;;;5.33;2.77;;;8.10;97.70;;;;;;4995531;28;20840;-73
2021/01/29 04:58:05;;;;;;;5.50;2.40;;;8.10;97.70;;;;;;4997157;28;20406;-72
2021/01/29 05:01:37;;;;;;;3.87;2.17;;;8.10;97.80;;;;;;4996419;28;20422;-72
2021/01/29 05:04:58;;;;;;;7.77;2.93;;;8.10;97.80;;;;;;4973199;28;20443;-73
2021/01/29 05:08:10;;;;;;;6.97;2.17;;;8.10;97.80;;;;;;4994968;28;20398;-72
2021/01/29 05:11:09;;;;;;;3.60;2.30;;;8.20;97.90;;;;;;4994946;28;20816;-73
2021/01/29 05:13:47;;;;;;;8.23;3.00;;;8.20;97.90;;;;;;4995299;28;20399;-73
2021/01/29 05:16:36;;;;;;;5.70;2.50;;;8.20;97.90;;;;;;4995126;28;20418;-73
2021/01/29 05:19:25;;;;;;;7.13;2.80;;;8.20;97.90;;;;;;4993836;28;20410;-72
2021/01/29 05:22:28;;;;;;;4.73;2.83;;;8.20;97.90;;;;;;4995408;28;20486;-75
2021/01/29 05:25:23;;;;;;;10.03;2.33;;;8.20;97.90;;;;;;4995349;28;20464;-72
2021/01/29 05:28:03;;;;;;;7.17;2.10;;;8.20;98.00;;;;;;4984571;28;20506;-73
2021/01/29 05:30:37;;;;;;;5.03;2.20;;;8.20;97.90;;;;;;4995683;28;20513;-73
2021/01/29 05:33:30;;;;;;;8.60;3.93;;;8.20;98.00;;;;;;4996235;28;20445;-73
2021/01/29 05:36:17;;;;;;;6.07;4.10;;;8.20;98.00;;;;;;4994356;28;20409;-73
2021/01/29 05:39:10;;;;;;;8.03;4.33;;;8.20;98.00;;;;;;4980888;28;20414;-73
2021/01/29 05:41:56;;;;;;;4.23;3.27;;;8.20;98.00;;;;;;4993491;28;20534;-73
2021/01/29 05:44:47;;;;;;;5.70;3.00;;;8.30;98.10;;;;;;4976652;28;21011;-73
2021/01/29 05:47:36;;;;;;;5.77;3.67;;;8.30;98.10;;;;;;4982876;28;20419;-73
2021/01/29 05:50:30;;;;;;;7.20;3.50;;;8.30;98.20;;;;;;4995607;28;20847;-74
2021/01/29 05:53:30;;;;;;;5.50;3.70;;;8.30;98.20;;;;;;4995010;28;20554;-72
2021/01/29 05:56:26;;;;;;;8.30;3.90;;;8.30;98.20;;;;;;4993375;28;20465;-72
2021/01/29 05:59:34;;;;;;;8.07;4.23;;;8.40;98.30;;;;;;4992720;28;20517;-73
2021/01/29 06:02:10;;;;;;;6.60;3.77;;;8.40;98.30;;;;;;4984561;28;20801;-73
2021/01/29 06:05:15;;;;;;;4.73;2.50;;;8.40;98.50;;;;;;4995632;28;20399;-73
2021/01/29 06:08:06;;;;;;;4.87;3.00;;;8.50;98.60;;;;;;4993386;28;20449;-72
2021/01/29 06:11:10;;;;;;;4.73;2.47;;;8.50;98.60;;;;;;4977694;28;20411;-72
2021/01/29 06:14:03;;;;;;;4.40;1.70;;;8.60;98.70;;;;;;4994560;28;20541;-73
2021/01/29 06:16:54;;;;;;;1.53;1.20;;;8.70;98.80;;;;;;4994731;28;20490;-73
2021/01/29 06:19:31;;;;;;;3.07;1.17;;;8.70;98.70;;;;;;4995104;28;20437;-76
2021/01/29 06:21:57;;;;;;;1.80;0.90;;;8.70;98.70;;;;;;4995555;28;20466;-74
2021/01/29 06:24:47;;;;;;;3.77;1.07;;;8.70;98.60;;;;;;4994197;28;20430;-73
2021/01/29 06:27:41;;;;;;;1.20;0.80;;;8.80;98.60;;;;;;4995054;28;20200;-74
2021/01/29 06:30:16;;;;;;;1.13;0.73;;;8.80;98.50;;;;;;4995224;28;20425;-75
2021/01/29 06:32:53;;;;;;;1.87;0.90;;;8.80;98.40;;;;;;4992921;28;20446;-75
2021/01/29 06:35:38;;;;;;;1.30;0.70;;;8.80;98.20;;;;;;4994075;28;20394;-74
2021/01/29 06:38:22;;;;;;;1.37;0.93;;;8.90;98.00;;;;;;4993688;28;20422;-72
2021/01/29 06:41:03;;;;;;;1.20;1.00;;;8.90;97.80;;;;;;4994642;28;20964;-73
2021/01/29 06:43:56;;;;;;;1.60;0.93;;;8.90;97.40;;;;;;5004992;28;20869;-77
2021/01/29 06:46:49;;;;;;;3.10;0.80;;;8.90;97.20;;;;;;5013745;28;20402;-77
2021/01/29 06:49:53;;;;;;;1.47;0.90;;;9.00;97.00;;;;;;4994638;28;20898;-77
2021/01/29 06:52:50;;;;;;;1.60;1.00;;;9.00;96.80;;;;;;4988654;28;20437;-77
2021/01/29 06:55:41;;;;;;;2.20;1.50;;;9.00;96.60;;;;;;4993962;28;20415;-77
2021/01/29 06:58:06;;;;;;;3.70;1.50;;;9.10;96.30;;;;;;4992050;28;20425;-78
2021/01/29 07:01:09;;;;;;;3.33;1.77;;;9.10;96.10;;;;;;4993176;28;20944;-77
2021/01/29 07:04:21;;;;;;;2.07;1.20;;;9.10;96.00;;;;;;4976530;28;20614;-76
2021/01/29 07:07:34;;;;;;;2.57;1.57;;;9.20;95.70;;;;;;4995220;28;20469;-77
2021/01/29 07:10:03;;;;;;;1.43;1.03;;;9.20;95.70;;;;;;4994320;28;20410;-77
2021/01/29 07:13:04;;;;;;;1.67;0.90;;;9.20;95.80;;;;;;4998016;28;20446;-76
2021/01/29 07:16:11;;;;;;;1.33;0.93;;;9.30;95.70;;;;;;4990948;28;20754;-77
2021/01/29 07:19:02;;;;;;;1.00;0.70;;;9.30;95.50;;;;;;4976244;28;21033;-76
2021/01/29 07:21:27;;;;;;;2.63;0.77;;;9.40;95.40;;;;;;4988743;28;20461;-77
2021/01/29 07:24:11;;;;;;;1.53;1.10;;;9.40;95.30;;;;;;4995135;28;20983;-77
2021/01/29 07:26:57;;;;;;;2.00;1.10;;;9.30;95.20;;;;;;4988560;28;20164;-77
2021/01/29 07:29:43;;;;;;;2.87;1.37;;;9.30;95.20;;;;;;4994643;28;20509;-77
2021/01/29 07:32:33;;;;;;;1.70;1.30;;;9.30;95.30;;;;;;4992451;28;21026;-77
2021/01/29 07:35:04;;;;;;;6.13;1.57;;;9.30;95.30;;;;;;4995323;28;20415;-77
2021/01/29 07:37:46;;;;;;;4.03;1.50;;;9.30;95.30;;;;;;4994019;28;20936;-77
2021/01/29 07:40:56;;;;;;;2.67;1.40;;;9.30;95.40;;;;;;4995272;28;20430;-78
2021/01/29 07:43:48;;;;;;;2.47;1.20;;;9.30;95.50;;;;;;4980091;28;20452;-77
2021/01/29 07:46:38;;;;;;;2.90;1.30;;;9.30;95.50;;;;;;4992467;28;20391;-78
2021/01/29 07:49:22;;;;;;;3.07;1.63;;;9.30;95.50;;;;;;5008722;28;20423;-78
2021/01/29 07:51:53;;;;;;;3.73;1.33;;;9.20;95.50;;;;;;4996645;28;20447;-77
2021/01/29 07:54:42;;;;;;;4.20;1.50;;;9.20;95.60;;;;;;4992951;28;20423;-77
2021/01/29 07:57:17;;;;;;;8.37;1.67;;;9.20;96.00;;;;;;4993195;28;20410;-77
2021/01/29 08:00:14;;;;;;;2.97;1.73;;;9.20;95.60;;;;;;4975438;28;20441;-78
2021/01/29 08:02:42;;;;;;;3.57;1.63;;;9.20;95.60;;;;;;4984443;28;20454;-76
2021/01/29 08:05:29;;;;;;;3.73;1.43;;;9.20;95.60;;;;;;4979597;28;20411;-78
2021/01/29 08:08:11;;;;;;;5.40;1.67;;;9.20;95.60;;;;;;4993013;28;20419;-78
2021/01/29 08:10:41;;;;;;;5.33;2.93;;;9.10;95.60;;;;;;4994420;28;20842;-78
2021/01/29 08:13:36;;;;;;;6.97;3.10;;;9.00;95.70;;;;;;4993202;28;20492;-77
2021/01/29 08:16:02;;;;;;;2.13;1.10;;;9.00;95.80;;;;;;4994307;28;20391;-78
2021/01/29 08:19:01;;;;;;;4.00;2.40;;;9.00;96.00;;;;;;4992025;28;20941;-76
2021/01/29 08:22:02;;;;;;;5.63;2.17;;;8.90;96.00;;;;;;4984975;28;20756;-77
2021/01/29 08:24:51;;;;;;;11.93;3.10;;;8.90;96.10;;;;;;4974400;28;20818;-77
2021/01/29 08:27:42;;;;;;;13.80;3.50;;;8.90;96.20;;;;;;4994555;28;20470;-77
2021/01/29 08:31:04;;;;;;;22.07;3.97;;;9.00;96.10;;;;;;4993569;28;20410;-80
2021/01/29 08:34:29;;;;;;;12.43;3.40;;;9.00;96.00;;;;;;4993062;28;20959;-79
2021/01/29 08:37:25;;;;;;;13.40;2.80;;;9.10;95.80;;;;;;4990658;28;20421;-76
2021/01/29 08:40:05;;;;;;;16.70;3.83;;;9.20;95.40;;;;;;4992075;28;20848;-76
2021/01/29 08:43:09;;;;;;;14.20;2.67;;;9.20;95.00;;;;;;4990874;28;20474;-74
2021/01/29 08:45:37;;;;;;;17.90;4.00;;;9.30;94.70;;;;;;4990170;28;20439;-74
2021/01/29 08:48:11;;;;;;;27.67;4.00;;;9.30;94.10;;;;;;4983420;28;20427;-74
2021/01/29 08:50:59;;;;;;;24.53;4.53;;;9.40;93.80;;;;;;4991233;28;20517;-78
2021/01/29 08:53:40;;;;;;;20.07;3.43;;;9.40;93.20;;;;;;4990876;28;20839;-77
2021/01/29 08:56:15;;;;;;;12.77;3.20;;;9.50;93.10;;;;;;4990285;28;20979;-75
2021/01/29 08:59:06;;;;;;;15.80;3.67;;;9.50;92.50;;;;;;4991098;28;20414;-76
2021/01/29 09:01:59;;;;;;;22.50;3.87;;;9.50;92.20;;;;;;4984512;28;20462;-75
2021/01/29 09:04:41;;;;;;;12.90;3.10;;;9.50;92.40;;;;;;4996404;28;20410;-75
2021/01/29 09:07:21;;;;;;;19.40;3.97;;;9.60;91.70;;;;;;4989809;28;20419;-76
2021/01/29 09:09:48;;;;;;;17.70;3.60;;;9.60;91.20;;;;;;4984995;28;20427;-76
2021/01/29 09:12:26;;;;;;;21.37;3.67;;;9.70;91.00;;;;;;4988880;28;20550;-76
2021/01/29 09:15:17;;;;;;;10.00;2.87;;;9.80;90.60;;;;;;4990651;28;20432;-75
2021/01/29 09:17:50;;;;;;;10.10;2.53;;;9.80;90.10;;;;;;4989160;28;20793;-77
2021/01/29 09:20:26;;;;;;;10.73;3.20;;;9.90;89.10;;;;;;4994160;28;20469;-76
2021/01/29 09:23:03;;;;;;;14.50;3.20;;;10.00;87.30;;;;;;4991692;28;20533;-75
2021/01/29 09:25:52;;;;;;;21.83;3.80;;;10.00;87.50;;;;;;4992255;28;20422;-76
2021/01/29 09:28:46;;;;;;;17.40;5.03;;;10.10;86.90;;;;;;4995070;28;20451;-75
2021/01/29 09:31:21;;;;;;;12.50;3.90;;;10.10;86.40;;;;;;4994183;28;20437;-75
2021/01/29 09:34:01;;;;;;;23.60;3.93;;;10.10;85.90;;;;;;4995995;28;20446;-76
2021/01/29 09:36:32;;;;;;;12.80;2.50;;;10.10;85.20;;;;;;4995077;28;20513;-77
2021/01/29 09:39:01;;;;;;;13.43;3.53;;;10.20;84.80;;;;;;4993763;28;20418;-77
2021/01/29 09:41:33;;;;;;;14.27;2.60;;;10.20;84.20;;;;;;4994726;28;20481;-75
2021/01/29 09:44:08;;;;;;;21.60;3.60;;;10.20;84.10;;;;;;4993908;28;20445;-76
2021/01/29 09:46:38;;;;;;;13.53;3.57;;;10.20;83.90;;;;;;4994756;28;20907;-75
2021/01/29 09:49:19;;;;;;;13.53;2.60;;;10.20;84.10;;;;;;4998991;28;20414;-74
2021/01/29 09:51:56;;;;;;;22.10;3.70;;;10.20;84.20;;;;;;4992541;28;20439;-75
2021/01/29 09:54:40;;;;;;;13.70;4.20;;;10.10;83.90;;;;;;4994653;28;20430;-75
2021/01/29 09:57:16;;;;;;;9.90;2.80;;;10.10;84.00;;;;;;4990303;28;20411;-75
2021/01/29 10:00:36;;;;;;;10.90;3.30;;;10.20;83.80;;;;;;4995013;28;21116;-75
2021/01/29 10:03:13;;;;;;;17.30;3.80;;;10.20;83.30;;;;;;4946179;29;20475;-76
2021/01/29 10:06:03;;;;;;;12.50;2.80;;;10.30;83.50;;;;;;4982154;28;20427;-75
2021/01/29 10:08:29;;;;;;;15.70;3.37;;;10.40;82.70;;;;;;4981542;28;20425;-76
2021/01/29 10:11:01;;;;;;;21.73;4.30;;;10.50;82.00;;;;;;4994917;28;20498;-75
2021/01/29 10:13:38;;;;;;;12.10;3.33;;;10.60;81.40;;;;;;4993973;28;20234;-74
2021/01/29 10:16:27;;;;;;;19.50;3.93;;;10.70;81.40;;;;;;4996077;28;20426;-74
2021/01/29 10:19:09;;;;;;;19.47;3.37;;;10.70;81.30;;;;;;4999747;28;20576;-77
2021/01/29 10:21:58;;;;;;;22.27;4.63;;;10.80;81.30;;;;;;4989845;28;20454;-77
2021/01/29 10:24:54;;;;;;;15.17;3.10;;;10.90;80.60;;;;;;4997352;28;20415;-78
2021/01/29 10:27:58;;;;;;;18.20;4.00;;;11.10;78.80;;;;;;4991594;28;20777;-76
2021/01/29 10:30:45;;;;;;;11.60;3.03;;;11.20;78.70;;;;;;4994377;28;20823;-76
2021/01/29 10:33:24;;;;;;;15.00;3.50;;;11.30;77.40;;;;;;4994047;28;20538;-79
2021/01/29 10:36:02;;;;;;;18.77;4.30;;;11.40;78.20;;;;;;4992328;28;20426;-82
2021/01/29 10:38:52;;;;;;;11.80;3.00;;;11.40;76.90;;;;;;5005788;28;20399;-83
2021/01/29 10:41:31;;;;;;;8.43;2.43;;;11.50;76.10;;;;;;4998727;28;20458;-83
2021/01/29 10:44:07;;;;;;;15.50;3.37;;;11.40;75.40;;;;;;4999464;28;20454;-80
2021/01/29 10:46:52;;;;;;;15.77;3.50;;;11.40;75.90;;;;;;4998051;28;20917;-84
2021/01/29 10:49:41;;;;;;;20.80;3.30;;;11.40;75.60;;;;;;4997908;28;20429;-81
2021/01/29 10:52:35;;;;;;;22.97;2.87;;;11.50;75.90;;;;;;4999869;28;20458;-81
2021/01/29 10:55:25;;;;;;;20.30;3.73;;;11.60;75.00;;;;;;4995777;28;20434;-79
2021/01/29 10:58:09;;;;;;;17.77;4.60;;;11.40;75.00;;;;;;4999770;28;20423;-82
2021/01/29 11:00:37;;;;;;;12.73;2.63;;;11.30;75.40;;;;;;4997393;28;20657;-82
2021/01/29 11:03:19;;;;;;;19.90;3.97;;;11.30;76.40;;;;;;5000902;28;20455;-78
2021/01/29 11:05:47;;;;;;;16.53;3.73;;;11.20;76.90;;;;;;5003777;28;20457;-78
2021/01/29 11:08:24;;;;;;;20.73;3.60;;;11.20;76.60;;;;;;4996568;28;20414;-81
2021/01/29 11:11:07;;;;;;;13.57;2.80;;;11.20;77.10;;;;;;4999137;28;21031;-82
2021/01/29 11:13:51;;;;;;;31.73;5.80;;;11.20;77.20;;;;;;4998683;28;20431;-82
2021/01/29 11:16:20;;;;;;;21.43;3.27;;;11.20;77.50;;;;;;4999093;28;20410;-80
2021/01/29 11:18:56;;;;;;;9.10;3.20;;;11.20;77.20;;;;;;4997389;28;20434;-81
2021/01/29 11:21:34;;;;;;;14.83;4.80;;;11.10;77.00;;;;;;5001867;28;20464;-85
2021/01/29 11:24:09;;;;;;;15.73;3.20;;;11.10;77.60;;;;;;5000824;28;20469;-80
2021/01/29 11:27:12;;;;;;;18.07;4.70;;;11.20;77.50;;;;;;5002626;28;20422;-80
2021/01/29 11:29:40;;;;;;;18.40;3.27;;;11.30;77.30;;;;;;4993813;28;20669;-81
2021/01/29 11:32:34;;;;;;;17.47;3.90;;;11.30;76.60;;;;;;5000596;28;20439;-81
2021/01/29 11:35:17;;;;;;;20.80;5.10;;;11.30;77.20;;;;;;5002867;28;20426;-81
2021/01/29 11:37:55;;;;;;;13.10;3.77;;;11.30;77.20;;;;;;5004692;28;20427;-81
2021/01/29 11:40:27;;;;;;;9.10;3.83;;;11.30;77.10;;;;;;5005372;28;20434;-81
2021/01/29 11:43:10;;;;;;;15.93;3.77;;;11.20;77.20;;;;;;5009522;28;20454;-80
2021/01/29 11:45:48;;;;;;;17.67;4.10;;;11.20;77.60;;;;;;5001322;28;20423;-81
2021/01/29 11:48:52;;;;;;;23.47;4.50;;;11.20;78.30;;;;;;4993793;28;20872;-81
2021/01/29 11:51:25;;;;;;;19.33;3.97;;;11.10;78.20;;;;;;4995226;28;20433;-80
2021/01/29 11:54:13;;;;;;;25.53;4.30;;;11.10;79.40;;;;;;5000407;28;20480;-81
2021/01/29 11:56:57;;;;;;;19.37;3.40;;;11.10;80.50;;;;;;4997134;28;20421;-82
2021/01/29 11:59:47;;;;;;;11.70;3.57;;;11.10;80.70;;;;;;5001057;28;20517;-82
2021/01/29 12:02:27;;;;;;;22.47;3.83;;;11.20;81.90;;;;;;5016924;23;20585;-80
2021/01/29 12:05:10;;;;;;;13.10;3.70;;;11.50;81.20;;;;;;4986708;28;20514;-84
2021/01/29 12:08:11;;;;;;;13.60;4.03;;;11.70;79.50;;;;;;4977639;28;20428;-85
2021/01/29 12:11:12;;;;;;;21.20;4.43;;;11.80;78.40;;;;;;4986002;28;20424;-82
2021/01/29 12:13:58;;;;;;;10.97;2.37;;;11.70;78.50;;;;;;5007223;28;20463;-85
2021/01/29 12:16:33;;;;;;;15.43;3.23;;;11.70;78.30;;;;;;4981329;28;20432;-85
2021/01/29 12:19:00;;;;;;;14.30;3.43;;;11.70;78.50;;;;;;4996859;28;20415;-81
2021/01/29 12:21:46;;;;;;;11.00;2.20;;;11.70;78.00;;;;;;4984796;28;20451;-82
2021/01/29 12:24:50;;;;;;;11.17;2.33;;;11.70;77.40;;;;;;4981259;28;20427;-85
2021/01/29 12:27:21;;;;;;;12.23;5.27;;;11.60;78.10;;;;;;4972530;28;20450;-81
2021/01/29 12:30:05;;;;;;;12.77;2.67;;;11.50;77.50;;;;;;4983482;28;20439;-85
2021/01/29 12:33:02;;;;;;;19.73;3.73;;;11.50;77.60;;;;;;4991249;28;20479;-84
2021/01/29 12:35:43;;;;;;;8.03;2.23;;;11.50;76.80;;;;;;4989430;28;20639;-84
2021/01/29 12:38:26;;;;;;;5.90;3.03;;;11.50;76.60;;;;;;4993364;28;20434;-83
2021/01/29 12:40:55;;;;;;;9.00;4.13;;;11.40;76.00;;;;;;4999721;28;20426;-83
2021/01/29 12:43:43;;;;;;;14.43;2.63;;;11.30;76.00;;;;;;4996077;28;20586;-82
2021/01/29 12:46:40;;;;;;;7.27;2.03;;;11.30;76.10;;;;;;4980786;28;20447;-83
2021/01/29 12:49:25;;;;;;;8.37;1.73;;;11.30;75.00;;;;;;4982468;28;20416;-82
2021/01/29 12:51:56;;;;;;;4.40;1.57;;;11.20;74.00;;;;;;4981521;28;21000;-84
2021/01/29 12:54:40;;;;;;;9.20;2.03;;;11.10;74.30;;;;;;4983410;28;20457;-83
2021/01/29 12:57:17;;;;;;;4.00;1.60;;;10.90;74.20;;;;;;4983157;28;20478;-82
2021/01/29 12:59:54;;;;;;;5.10;1.80;;;10.70;75.70;;;;;;4980478;28;20514;-82
2021/01/29 13:02:35;;;;;;;6.10;1.53;;;10.70;78.00;;;;;;4981676;28;20950;-83
2021/01/29 13:05:28;;;;;;;8.40;1.80;;;10.60;78.80;;;;;;4985571;28;20475;-83
2021/01/29 13:08:06;;;;;;;4.17;1.87;;;10.60;79.20;;;;;;4992163;28;20404;-82
2021/01/29 13:11:02;;;;;;;10.67;2.70;;;10.50;79.70;;;;;;4989959;28;20412;-83
2021/01/29 13:14:05;;;;;;;2.80;1.40;;;10.50;80.00;;;;;;4975959;28;20520;-83
2021/01/29 13:17:06;;;;;;;7.67;2.10;;;10.60;80.20;;;;;;4992862;28;20418;-82
2021/01/29 13:19:36;;;;;;;7.43;1.60;;;10.70;79.60;;;;;;4992770;28;20427;-85
2021/01/29 13:22:17;;;;;;;7.63;2.73;;;10.70;79.20;;;;;;4993958;28;20502;-87
2021/01/29 13:24:43;;;;;;;10.50;2.07;;;10.80;79.60;;;;;;4992036;28;20830;-82
2021/01/29 13:27:15;;;;;;;12.00;2.57;;;10.80;78.90;;;;;;4989925;28;20427;-86
2021/01/29 13:29:41;;;;;;;7.13;2.03;;;10.80;78.70;;;;;;4994786;28;20416;-85
2021/01/29 13:32:21;;;;;;;9.60;2.43;;;10.80;78.10;;;;;;4995443;28;20423;-85
2021/01/29 13:34:47;;;;;;;14.27;2.87;;;10.90;78.60;;;;;;4985590;28;20415;-84
2021/01/29 13:37:23;;;;;;;7.70;1.87;;;11.00;78.20;;;;;;4990171;28;20420;-85
2021/01/29 13:39:50;;;;;;;20.60;3.07;;;11.00;78.10;;;;;;4991936;28;20842;-84
2021/01/29 13:42:30;;;;;;;15.23;2.70;;;11.10;78.60;;;;;;4985921;28;20455;-83
2021/01/29 13:45:23;;;;;;;12.63;2.83;;;11.30;77.70;;;;;;4986877;28;20423;-83
2021/01/29 13:48:19;;;;;;;10.00;2.40;;;11.60;77.30;;;;;;4984643;28;20487;-83
2021/01/29 13:50:48;;;;;;;9.80;3.13;;;11.80;76.30;;;;;;4985572;28;20424;-85
2021/01/29 13:53:16;;;;;;;15.03;2.70;;;12.00;74.90;;;;;;4983005;28;20455;-85
2021/01/29 13:55:53;;;;;;;11.73;2.77;;;11.90;72.90;;;;;;4983541;28;20423;-83
2021/01/29 13:58:41;;;;;;;4.97;1.70;;;11.70;72.00;;;;;;4997886;28;20424;-87
2021/01/29 14:01:19;;;;;;;8.40;1.60;;;11.40;72.40;;;;;;4987458;28;20428;-84
2021/01/29 14:03:53;;;;;;;4.77;2.17;;;11.20;74.00;;;;;;4984645;28;20474;-89
2021/01/29 14:06:19;;;;;;;6.47;2.03;;;10.90;75.10;;;;;;4994709;28;20444;-88
2021/01/29 14:08:47;;;;;;;8.47;2.10;;;10.90;77.00;;;;;;4993025;28;20428;-83
2021/01/29 14:11:18;;;;;;;11.90;2.70;;;10.90;76.60;;;;;;4965074;28;20483;-86
2021/01/29 14:14:15;;;;;;;7.00;1.30;;;10.80;76.70;;;;;;4980812;28;20540;-83
2021/01/29 14:17:14;;;;;;;12.37;2.83;;;10.70;76.80;;;;;;4983498;28;20423;-84